SSEC Globe Logo

Space Science and Engineering Center

Regional Terminal Forecasts

KMSN 251502Z 2515/2612 27007KT P6SM BKN025 FM251700
     29011G18KT P6SM VCSH BKN040 FM260000 29010KT P6SM
     BKN060 FM260400 29005KT P6SM SKC=
TAF AMD KMKE 251502Z 2515/2618 28009KT P6SM FEW035 FM251700
     28013G19KT P6SM SCT040 FM252100 28012G19KT P6SM VCSH
     BKN040 FM260000 28011KT P6SM BKN060 FM261300 28011KT
     P6SM SCT060=
KGRB 251136Z 2512/2612 27006KT P6SM SCT025 BKN100 TEMPO
     2512/2514 BKN025 FM251800 29010G17KT P6SM VCSH BKN040
     FM252300 29007KT P6SM SCT030 BKN080 TEMPO 2523/2603
     -SHRA BKN030 FM260900 28007KT P6SM BKN020=
TAF KAUW 251136Z 2512/2612 29007KT P6SM SCT012 BKN100 TEMPO
     2512/2514 BKN012 FM251700 28010G18KT P6SM SCT015 BKN030
     TEMPO 2518/2522 -SHRA BKN015 FM252200 29010G15KT P6SM
     -SHRA BKN020 FM260200 28007KT P6SM BKN020 BKN070=
KEAU 251120Z 2512/2612 28009KT P6SM BKN014 OVC018 FM251800
     29013G21KT P6SM VCSH BKN040 FM260100 30005KT P6SM
     FEW050=
KLSE 251720Z 2518/2618 29013G20KT P6SM VCSH SCT030 BKN045
     FM260000 30007KT P6SM SCT050=
KDBQ 251125Z 2512/2612 29009KT P6SM SKC FM251700 29015G21KT
     P6SM BKN050 FM260000 29008KT P6SM SCT050=
TAF TAF AMD KRFD 251519Z 2515/2612 29014G23KT P6SM FEW035
     SCT045 FM260100 27010KT P6SM SCT045=
KORD 251519Z 2515/2618 29014G23KT P6SM FEW035 SCT050
     FM260100 27010KT P6SM SCT050 FM261500 28015G24KT P6SM
     BKN050=